createdAt,value
2017-02-14T00:00:13.097Z,1023.61
2017-02-14T00:00:53.751Z,1023.56
2017-02-14T00:01:34.405Z,1023.58
2017-02-14T00:02:15.055Z,1023.54
2017-02-14T00:02:56.723Z,1023.53
2017-02-14T00:03:38.395Z,1023.51
2017-02-14T00:04:19.046Z,1023.53
2017-02-14T00:04:59.632Z,1023.5
2017-02-14T00:05:40.287Z,1023.51
2017-02-14T00:06:20.943Z,1023.55
2017-02-14T00:07:01.595Z,1023.51
2017-02-14T00:07:42.248Z,1023.51
2017-02-14T00:08:22.904Z,1023.51
2017-02-14T00:09:03.553Z,1023.47
2017-02-14T00:09:44.207Z,1023.47
2017-02-14T00:10:24.863Z,1023.49
2017-02-14T00:11:05.515Z,1023.48
2017-02-14T00:11:47.186Z,1023.49
2017-02-14T00:12:27.772Z,1023.53
2017-02-14T00:13:08.453Z,1023.5
2017-02-14T00:13:49.053Z,1023.52
2017-02-14T00:14:29.700Z,1023.52
2017-02-14T00:15:10.276Z,1023.48
2017-02-14T00:15:50.958Z,1023.51
2017-02-14T00:16:32.578Z,1023.5
2017-02-14T00:17:13.234Z,1023.42
2017-02-14T00:17:53.886Z,1023.44
2017-02-14T00:18:34.542Z,1023.43
2017-02-14T00:19:15.187Z,1023.43
2017-02-14T00:19:55.844Z,1023.42
2017-02-14T00:20:36.496Z,1023.37
2017-02-14T00:21:17.153Z,1023.43
2017-02-14T00:21:57.803Z,1023.43
2017-02-14T00:22:38.455Z,1023.45
2017-02-14T00:23:19.109Z,1023.5
2017-02-14T00:23:59.763Z,1023.47
2017-02-14T00:24:41.444Z,1023.48
2017-02-14T00:25:22.088Z,1023.43
2017-02-14T00:26:02.741Z,1023.47
2017-02-14T00:26:43.388Z,1023.47
2017-02-14T00:27:24.152Z,1023.51
2017-02-14T00:28:04.806Z,1023.47
2017-02-14T00:28:45.460Z,1023.45
2017-02-14T00:29:26.108Z,1023.44
2017-02-14T00:30:06.763Z,1023.47
2017-02-14T00:30:47.414Z,1023.5
2017-02-14T00:31:28.000Z,1023.44
2017-02-14T00:32:08.614Z,1023.45
2017-02-14T00:32:49.180Z,1023.42
2017-02-14T00:33:29.833Z,1023.42
2017-02-14T00:34:10.494Z,1023.41
2017-02-14T00:34:51.132Z,1023.37
2017-02-14T00:35:31.691Z,1023.33
2017-02-14T00:36:13.325Z,1023.33
2017-02-14T00:36:53.900Z,1023.34
2017-02-14T00:37:35.584Z,1023.35
2017-02-14T00:38:16.145Z,1023.38
2017-02-14T00:38:57.772Z,1023.37
2017-02-14T00:39:38.361Z,1023.37
2017-02-14T00:40:19.018Z,1023.39
2017-02-14T00:40:59.596Z,1023.4
2017-02-14T00:41:40.189Z,1023.35
2017-02-14T00:42:20.777Z,1023.37
2017-02-14T00:43:01.424Z,1023.32
2017-02-14T00:43:43.098Z,1023.32
2017-02-14T00:44:23.766Z,1023.33
2017-02-14T00:45:04.405Z,1023.29
2017-02-14T00:45:45.057Z,1023.26
2017-02-14T00:46:25.713Z,1023.3
2017-02-14T00:47:06.367Z,1023.31
2017-02-14T00:47:47.017Z,1023.33
2017-02-14T00:48:27.673Z,1023.28
2017-02-14T00:49:08.321Z,1023.27
2017-02-14T00:49:48.975Z,1023.26
2017-02-14T00:50:29.628Z,1023.29
2017-02-14T00:51:10.282Z,1023.28
2017-02-14T00:51:50.936Z,1023.29
2017-02-14T00:52:31.597Z,1023.33
2017-02-14T00:53:12.166Z,1023.36
2017-02-14T00:53:52.790Z,1023.34
2017-02-14T00:54:38.378Z,1023.35
2017-02-14T00:55:18.931Z,1023.36
2017-02-14T00:55:59.563Z,1023.31
2017-02-14T00:56:40.216Z,1023.34
2017-02-14T00:57:20.770Z,1023.27
2017-02-14T00:58:02.442Z,1023.31
2017-02-14T00:58:43.095Z,1023.32
2017-02-14T00:59:23.670Z,1023.35
2017-02-14T01:00:04.221Z,1023.37
2017-02-14T01:00:44.847Z,1023.36
2017-02-14T01:01:25.420Z,1023.37
2017-02-14T01:02:06.061Z,1023.37
2017-02-14T01:02:46.703Z,1023.32
2017-02-14T01:03:27.356Z,1023.35
2017-02-14T01:04:08.010Z,1023.32
2017-02-14T01:04:48.669Z,1023.29
2017-02-14T01:05:29.326Z,1023.3
2017-02-14T01:06:09.970Z,1023.31
2017-02-14T01:06:50.629Z,1023.27
2017-02-14T01:07:31.199Z,1023.3
2017-02-14T01:08:11.823Z,1023.24
2017-02-14T01:08:53.452Z,1023.27
2017-02-14T01:09:34.004Z,1023.29
2017-02-14T01:10:14.605Z,1023.31
2017-02-14T01:10:55.264Z,1023.32
2017-02-14T01:11:35.854Z,1023.32
2017-02-14T01:12:16.456Z,1023.34
2017-02-14T01:12:57.091Z,1023.36
2017-02-14T01:13:37.764Z,1023.33
2017-02-14T01:14:19.441Z,1023.38
2017-02-14T01:15:00.093Z,1023.37
2017-02-14T01:15:40.857Z,1023.41
2017-02-14T01:16:21.508Z,1023.34
2017-02-14T01:17:02.162Z,1023.32
2017-02-14T01:17:42.813Z,1023.37
2017-02-14T01:18:23.468Z,1023.33
2017-02-14T01:19:04.119Z,1023.37
2017-02-14T01:19:44.766Z,1023.34
2017-02-14T01:20:26.347Z,1023.36
2017-02-14T01:21:07.000Z,1023.32
2017-02-14T01:21:47.759Z,1023.33
2017-02-14T01:22:28.415Z,1023.33
2017-02-14T01:23:09.000Z,1023.32
2017-02-14T01:23:49.715Z,1023.26
2017-02-14T01:24:30.364Z,1023.27
2017-02-14T01:25:10.936Z,1023.27
2017-02-14T01:25:51.579Z,1023.26
2017-02-14T01:26:32.223Z,1023.26
2017-02-14T01:27:12.785Z,1023.25
2017-02-14T01:27:53.452Z,1023.23
2017-02-14T01:28:34.184Z,1023.22
2017-02-14T01:29:14.754Z,1023.21
2017-02-14T01:29:55.332Z,1023.2
2017-02-14T01:30:36.038Z,1023.18
2017-02-14T01:31:16.609Z,1023.19
2017-02-14T01:31:57.242Z,1023.14
2017-02-14T01:32:37.897Z,1023.17
2017-02-14T01:33:19.572Z,1023.17
2017-02-14T01:34:00.224Z,1023.18
2017-02-14T01:34:40.878Z,1023.11
2017-02-14T01:35:21.531Z,1023.07
2017-02-14T01:36:02.185Z,1023.07
2017-02-14T01:36:42.836Z,1023.08
2017-02-14T01:37:23.492Z,1023.09
2017-02-14T01:38:04.052Z,1023.03
2017-02-14T01:38:44.744Z,1023.06
2017-02-14T01:39:25.458Z,1023.01
2017-02-14T01:40:06.207Z,1023.03
2017-02-14T01:40:46.767Z,1022.99
2017-02-14T01:41:27.559Z,1023.03
2017-02-14T01:42:08.262Z,1022.98
2017-02-14T01:42:48.941Z,1023.01
2017-02-14T01:43:29.467Z,1022.93
2017-02-14T01:44:10.209Z,1022.91
2017-02-14T01:44:51.906Z,1022.91
2017-02-14T01:45:32.557Z,1022.91
2017-02-14T01:46:13.114Z,1022.9
2017-02-14T01:46:53.806Z,1022.92
2017-02-14T01:47:34.410Z,1022.91
2017-02-14T01:48:15.164Z,1022.95
2017-02-14T01:48:55.820Z,1022.87
2017-02-14T01:49:36.470Z,1022.92
2017-02-14T01:50:17.126Z,1022.9
2017-02-14T01:50:57.775Z,1022.95
2017-02-14T01:51:38.434Z,1022.92
2017-02-14T01:52:19.080Z,1022.94
2017-02-14T01:52:59.668Z,1022.95
2017-02-14T01:53:40.429Z,1022.96
2017-02-14T01:54:21.037Z,1022.98
2017-02-14T01:55:01.699Z,1022.96
2017-02-14T01:55:42.249Z,1022.97
2017-02-14T01:56:22.984Z,1022.96
2017-02-14T01:57:03.659Z,1022.95
2017-02-14T01:57:45.357Z,1022.98
2017-02-14T01:58:26.088Z,1022.98
2017-02-14T01:59:06.745Z,1022.95
2017-02-14T01:59:47.389Z,1022.91
2017-02-14T02:00:28.150Z,1022.93
2017-02-14T02:01:08.809Z,1022.94
2017-02-14T02:01:49.458Z,1022.93
2017-02-14T02:02:30.110Z,1022.91
2017-02-14T02:03:10.665Z,1022.85
2017-02-14T02:03:51.428Z,1022.85
2017-02-14T02:04:32.166Z,1022.88
2017-02-14T02:05:12.817Z,1022.84
2017-02-14T02:05:53.385Z,1022.82
2017-02-14T02:06:34.075Z,1022.85
2017-02-14T02:07:16.724Z,1022.84
2017-02-14T02:07:57.432Z,1022.86
2017-02-14T02:08:38.139Z,1022.78
2017-02-14T02:09:19.809Z,1022.84
2017-02-14T02:10:00.468Z,1022.85
2017-02-14T02:10:41.236Z,1022.82
2017-02-14T02:11:21.973Z,1022.81
2017-02-14T02:12:02.630Z,1022.83
2017-02-14T02:12:43.186Z,1022.84
2017-02-14T02:13:23.779Z,1022.8
2017-02-14T02:14:04.490Z,1022.83
2017-02-14T02:14:45.067Z,1022.84
2017-02-14T02:15:25.702Z,1022.84
2017-02-14T02:16:06.450Z,1022.85
2017-02-14T02:16:47.007Z,1022.91
2017-02-14T02:17:27.657Z,1022.89
2017-02-14T02:18:08.303Z,1022.87
2017-02-14T02:18:48.854Z,1022.84
2017-02-14T02:19:29.554Z,1022.86
2017-02-14T02:20:10.272Z,1022.84
2017-02-14T02:20:50.919Z,1022.81
2017-02-14T02:21:31.493Z,1022.84
2017-02-14T02:22:12.168Z,1022.82
2017-02-14T02:22:52.780Z,1022.77
2017-02-14T02:23:33.422Z,1022.78
2017-02-14T02:24:13.988Z,1022.78
2017-02-14T02:24:54.683Z,1022.79
2017-02-14T02:25:35.374Z,1022.8
2017-02-14T02:26:16.034Z,1022.77
2017-02-14T02:26:56.584Z,1022.81
2017-02-14T02:27:37.275Z,1022.76
2017-02-14T02:28:18.041Z,1022.82
2017-02-14T02:28:59.661Z,1022.78
2017-02-14T02:29:40.346Z,1022.77
2017-02-14T02:30:21.022Z,1022.76
2017-02-14T02:31:01.734Z,1022.69
2017-02-14T02:31:42.386Z,1022.71
2017-02-14T02:32:22.939Z,1022.7
2017-02-14T02:33:03.628Z,1022.72
2017-02-14T02:33:44.299Z,1022.73
2017-02-14T02:34:25.050Z,1022.67
2017-02-14T02:35:05.690Z,1022.72
2017-02-14T02:35:46.368Z,1022.7
2017-02-14T02:36:27.023Z,1022.71
2017-02-14T02:37:07.686Z,1022.74
2017-02-14T02:37:49.350Z,1022.74
2017-02-14T02:38:29.942Z,1022.75
2017-02-14T02:39:10.589Z,1022.79
2017-02-14T02:39:51.155Z,1022.76
2017-02-14T02:40:31.872Z,1022.75
2017-02-14T02:41:12.551Z,1022.79
2017-02-14T02:41:53.200Z,1022.72
2017-02-14T02:42:33.754Z,1022.74
2017-02-14T02:43:14.403Z,1022.79
2017-02-14T02:43:55.057Z,1022.76
2017-02-14T02:44:35.710Z,1022.75
2017-02-14T02:45:16.365Z,1022.76
2017-02-14T02:45:57.020Z,1022.73
2017-02-14T02:46:37.670Z,1022.74
2017-02-14T02:47:19.243Z,1022.71
2017-02-14T02:47:59.808Z,1022.69
2017-02-14T02:48:41.437Z,1022.71
2017-02-14T02:49:22.127Z,1022.67
2017-02-14T02:50:02.779Z,1022.65
2017-02-14T02:50:43.373Z,1022.62
2017-02-14T02:51:23.948Z,1022.62
2017-02-14T02:52:04.643Z,1022.62
2017-02-14T02:52:46.311Z,1022.58
2017-02-14T02:53:26.967Z,1022.59
2017-02-14T02:54:07.617Z,1022.57
2017-02-14T02:54:48.269Z,1022.55
2017-02-14T02:55:28.921Z,1022.52
2017-02-14T02:56:10.598Z,1022.5
2017-02-14T02:56:51.250Z,1022.51
2017-02-14T02:57:31.907Z,1022.48
2017-02-14T02:58:12.456Z,1022.46
2017-02-14T02:58:53.057Z,1022.42
2017-02-14T02:59:33.666Z,1022.38
2017-02-14T03:00:14.318Z,1022.42
2017-02-14T03:00:54.869Z,1022.42
2017-02-14T03:01:35.455Z,1022.41
2017-02-14T03:02:17.216Z,1022.41
2017-02-14T03:02:57.848Z,1022.43
2017-02-14T03:03:38.764Z,1022.43
2017-02-14T03:04:20.603Z,1022.45
2017-02-14T03:05:01.235Z,1022.42
2017-02-14T03:05:41.886Z,1022.38
2017-02-14T03:06:22.545Z,1022.43
2017-02-14T03:07:03.197Z,1022.36
2017-02-14T03:07:43.821Z,1022.42
2017-02-14T03:08:24.394Z,1022.44
2017-02-14T03:09:05.048Z,1022.42
2017-02-14T03:09:45.598Z,1022.41
2017-02-14T03:10:26.254Z,1022.35
2017-02-14T03:11:06.906Z,1022.33
2017-02-14T03:11:47.468Z,1022.37
2017-02-14T03:12:28.122Z,1022.38
2017-02-14T03:13:08.761Z,1022.31
2017-02-14T03:13:49.327Z,1022.33
2017-02-14T03:14:29.915Z,1022.31
2017-02-14T03:15:10.508Z,1022.39
2017-02-14T03:15:51.177Z,1022.34
2017-02-14T03:16:31.755Z,1022.33
2017-02-14T03:17:12.380Z,1022.31
2017-02-14T03:17:52.938Z,1022.28
2017-02-14T03:18:33.572Z,1022.27
2017-02-14T03:19:14.231Z,1022.27
2017-02-14T03:19:54.786Z,1022.26
2017-02-14T03:20:35.431Z,1022.25
2017-02-14T03:21:16.086Z,1022.27
2017-02-14T03:21:56.650Z,1022.22
2017-02-14T03:22:37.296Z,1022.23
2017-02-14T03:23:17.946Z,1022.25
2017-02-14T03:23:58.594Z,1022.22
2017-02-14T03:24:39.254Z,1022.26
2017-02-14T03:25:19.902Z,1022.27
2017-02-14T03:26:01.484Z,1022.32
2017-02-14T03:26:42.129Z,1022.28
2017-02-14T03:27:23.710Z,1022.25
2017-02-14T03:28:04.361Z,1022.25
2017-02-14T03:28:45.009Z,1022.28
2017-02-14T03:29:25.662Z,1022.28
2017-02-14T03:30:06.318Z,1022.21
2017-02-14T03:30:46.972Z,1022.26
2017-02-14T03:31:27.622Z,1022.25
2017-02-14T03:32:08.274Z,1022.3
2017-02-14T03:32:53.445Z,1022.27
2017-02-14T03:33:34.080Z,1022.25
2017-02-14T03:34:14.752Z,1022.27
2017-02-14T03:34:55.386Z,1022.24
2017-02-14T03:35:36.045Z,1022.32
2017-02-14T03:36:16.701Z,1022.26
2017-02-14T03:36:57.354Z,1022.3
2017-02-14T03:37:39.032Z,1022.31
2017-02-14T03:38:19.686Z,1022.3
2017-02-14T03:39:01.360Z,1022.31
2017-02-14T03:39:42.013Z,1022.35
2017-02-14T03:40:22.675Z,1022.33
2017-02-14T03:41:04.343Z,1022.35
2017-02-14T03:41:44.997Z,1022.36
2017-02-14T03:42:25.649Z,1022.33
2017-02-14T03:43:06.238Z,1022.33
2017-02-14T03:43:46.895Z,1022.37
2017-02-14T03:44:27.497Z,1022.39
2017-02-14T03:45:08.157Z,1022.38
2017-02-14T03:45:48.717Z,1022.41
2017-02-14T03:46:29.311Z,1022.42
2017-02-14T03:47:09.901Z,1022.42
2017-02-14T03:47:50.560Z,1022.4
2017-02-14T03:48:31.130Z,1022.36
2017-02-14T03:49:11.678Z,1022.34
2017-02-14T03:49:52.319Z,1022.39
2017-02-14T03:50:32.872Z,1022.37
2017-02-14T03:51:13.520Z,1022.39
2017-02-14T03:51:54.177Z,1022.37
2017-02-14T03:52:34.716Z,1022.38
2017-02-14T03:53:16.391Z,1022.33
2017-02-14T03:53:57.047Z,1022.33
2017-02-14T03:54:37.708Z,1022.34
2017-02-14T03:55:18.357Z,1022.34
2017-02-14T03:55:59.012Z,1022.37
2017-02-14T03:56:39.666Z,1022.41
2017-02-14T03:57:20.220Z,1022.41
2017-02-14T03:58:00.868Z,1022.45
2017-02-14T03:58:43.473Z,1022.43
2017-02-14T03:59:24.031Z,1022.45
2017-02-14T04:00:04.656Z,1022.43
2017-02-14T04:00:45.223Z,1022.49
2017-02-14T04:01:25.876Z,1022.48
2017-02-14T04:02:06.437Z,1022.5
2017-02-14T04:02:47.027Z,1022.49
2017-02-14T04:03:27.613Z,1022.48
2017-02-14T04:04:09.188Z,1022.48
2017-02-14T04:04:49.847Z,1022.51
2017-02-14T04:05:30.516Z,1022.53
2017-02-14T04:06:11.147Z,1022.49
2017-02-14T04:06:51.828Z,1022.48
2017-02-14T04:07:32.479Z,1022.51
2017-02-14T04:08:13.120Z,1022.47
2017-02-14T04:08:53.773Z,1022.47
2017-02-14T04:09:34.422Z,1022.44
2017-02-14T04:10:15.082Z,1022.4
2017-02-14T04:10:55.734Z,1022.43
2017-02-14T04:11:36.371Z,1022.38
2017-02-14T04:12:17.051Z,1022.4
2017-02-14T04:12:57.700Z,1022.38
2017-02-14T04:13:38.342Z,1022.39
2017-02-14T04:14:18.993Z,1022.32
2017-02-14T04:14:59.651Z,1022.3
2017-02-14T04:15:40.305Z,1022.29
2017-02-14T04:16:20.956Z,1022.31
2017-02-14T04:17:01.611Z,1022.28
2017-02-14T04:17:42.263Z,1022.3
2017-02-14T04:18:22.935Z,1022.3
2017-02-14T04:19:03.492Z,1022.27
2017-02-14T04:19:44.118Z,1022.29
2017-02-14T04:20:24.769Z,1022.3
2017-02-14T04:21:05.325Z,1022.33
2017-02-14T04:21:47.024Z,1022.38
2017-02-14T04:22:27.653Z,1022.36
2017-02-14T04:23:08.216Z,1022.38
2017-02-14T04:23:48.855Z,1022.39
2017-02-14T04:24:29.538Z,1022.38
2017-02-14T04:25:10.111Z,1022.4
2017-02-14T04:25:50.791Z,1022.39
2017-02-14T04:26:31.333Z,1022.42
2017-02-14T04:27:11.916Z,1022.43
2017-02-14T04:27:52.473Z,1022.42
2017-02-14T04:28:33.070Z,1022.44
2017-02-14T04:29:13.683Z,1022.43
2017-02-14T04:29:54.324Z,1022.48
2017-02-14T04:30:34.901Z,1022.46
2017-02-14T04:31:16.551Z,1022.5
2017-02-14T04:31:57.113Z,1022.5
2017-02-14T04:32:37.704Z,1022.48
2017-02-14T04:33:18.299Z,1022.43
2017-02-14T04:33:58.956Z,1022.4
2017-02-14T04:34:39.611Z,1022.42
2017-02-14T04:35:20.267Z,1022.4
2017-02-14T04:36:00.915Z,1022.36
2017-02-14T04:36:41.582Z,1022.38
2017-02-14T04:37:22.223Z,1022.35
2017-02-14T04:38:02.782Z,1022.32
2017-02-14T04:38:43.396Z,1022.38
2017-02-14T04:39:23.974Z,1022.4
2017-02-14T04:40:04.628Z,1022.36
2017-02-14T04:40:45.187Z,1022.35
2017-02-14T04:41:25.789Z,1022.4
2017-02-14T04:42:06.391Z,1022.41
2017-02-14T04:42:47.031Z,1022.42
2017-02-14T04:43:27.613Z,1022.41
2017-02-14T04:44:08.191Z,1022.36
2017-02-14T04:44:48.788Z,1022.39
2017-02-14T04:45:29.449Z,1022.35
2017-02-14T04:46:10.003Z,1022.36
2017-02-14T04:46:50.598Z,1022.34
2017-02-14T04:47:31.197Z,1022.36
2017-02-14T04:48:11.858Z,1022.35
2017-02-14T04:48:52.431Z,1022.31
2017-02-14T04:49:33.125Z,1022.36
2017-02-14T04:50:13.679Z,1022.34
2017-02-14T04:50:54.308Z,1022.33
2017-02-14T04:51:34.896Z,1022.34
2017-02-14T04:52:15.467Z,1022.35
2017-02-14T04:52:56.039Z,1022.3
2017-02-14T04:53:36.668Z,1022.34
2017-02-14T04:54:18.344Z,1022.3
2017-02-14T04:54:58.913Z,1022.3
2017-02-14T04:55:39.551Z,1022.29
2017-02-14T04:56:20.192Z,1022.26
2017-02-14T04:57:00.742Z,1022.27
2017-02-14T04:57:41.408Z,1022.3
2017-02-14T04:58:22.061Z,1022.32
2017-02-14T04:59:02.709Z,1022.32
2017-02-14T04:59:43.358Z,1022.33
2017-02-14T05:00:24.019Z,1022.38
2017-02-14T05:01:04.669Z,1022.38
2017-02-14T05:01:45.315Z,1022.36
2017-02-14T05:02:26.994Z,1022.38
2017-02-14T05:03:07.655Z,1022.35
2017-02-14T05:03:48.299Z,1022.36
2017-02-14T05:04:28.962Z,1022.38
2017-02-14T05:05:09.612Z,1022.34
2017-02-14T05:05:50.262Z,1022.36
2017-02-14T05:06:30.920Z,1022.32
2017-02-14T05:07:11.579Z,1022.33
2017-02-14T05:07:52.221Z,1022.3
2017-02-14T05:08:33.903Z,1022.3
2017-02-14T05:09:14.555Z,1022.29
2017-02-14T05:09:55.203Z,1022.35
2017-02-14T05:10:35.857Z,1022.3
2017-02-14T05:11:16.509Z,1022.33
2017-02-14T05:11:57.165Z,1022.38
2017-02-14T05:12:37.821Z,1022.36
2017-02-14T05:13:18.380Z,1022.34
2017-02-14T05:13:59.017Z,1022.39
2017-02-14T05:14:39.671Z,1022.37
2017-02-14T05:15:20.241Z,1022.32
2017-02-14T05:16:00.882Z,1022.32
2017-02-14T05:16:41.529Z,1022.32
2017-02-14T05:17:22.100Z,1022.3
2017-02-14T05:18:02.728Z,1022.29
2017-02-14T05:18:43.388Z,1022.27
2017-02-14T05:19:24.046Z,1022.26
2017-02-14T05:20:04.689Z,1022.24
2017-02-14T05:20:45.342Z,1022.26
2017-02-14T05:21:25.995Z,1022.27
2017-02-14T05:22:06.647Z,1022.25
2017-02-14T05:22:47.302Z,1022.27
2017-02-14T05:23:27.902Z,1022.23
2017-02-14T05:24:08.514Z,1022.24
2017-02-14T05:24:49.164Z,1022.27
2017-02-14T05:25:29.724Z,1022.23
2017-02-14T05:26:10.361Z,1022.21
2017-02-14T05:26:51.023Z,1022.25
2017-02-14T05:27:31.598Z,1022.23
2017-02-14T05:28:12.219Z,1022.26
2017-02-14T05:28:52.871Z,1022.24
2017-02-14T05:29:33.429Z,1022.25
2017-02-14T05:30:14.066Z,1022.2
2017-02-14T05:30:54.638Z,1022.23
2017-02-14T05:31:35.234Z,1022.21
2017-02-14T05:32:15.836Z,1022.23
2017-02-14T05:32:57.409Z,1022.24
2017-02-14T05:33:37.968Z,1022.28
2017-02-14T05:34:18.559Z,1022.26
2017-02-14T05:34:59.163Z,1022.25
2017-02-14T05:35:39.810Z,1022.26
2017-02-14T05:36:20.365Z,1022.29
2017-02-14T05:37:00.971Z,1022.3
2017-02-14T05:37:41.563Z,1022.29
2017-02-14T05:38:22.129Z,1022.3
2017-02-14T05:39:02.729Z,1022.32
2017-02-14T05:39:43.373Z,1022.32
2017-02-14T05:40:24.027Z,1022.33
2017-02-14T05:41:04.688Z,1022.34
2017-02-14T05:41:45.361Z,1022.29
2017-02-14T05:42:25.988Z,1022.3
2017-02-14T05:43:06.642Z,1022.27
2017-02-14T05:43:47.260Z,1022.26
2017-02-14T05:44:27.895Z,1022.28
2017-02-14T05:45:08.457Z,1022.25
2017-02-14T05:45:49.088Z,1022.28
2017-02-14T05:46:29.659Z,1022.26
2017-02-14T05:47:10.252Z,1022.27
2017-02-14T05:47:50.839Z,1022.32
2017-02-14T05:48:31.505Z,1022.29
2017-02-14T05:49:12.064Z,1022.26
2017-02-14T05:49:52.655Z,1022.25
2017-02-14T05:50:33.235Z,1022.3
2017-02-14T05:51:13.915Z,1022.23
2017-02-14T05:51:54.470Z,1022.28
2017-02-14T05:52:36.098Z,1022.22
2017-02-14T05:53:16.692Z,1022.22
2017-02-14T05:53:57.344Z,1022.25
2017-02-14T05:54:37.896Z,1022.22
2017-02-14T05:55:18.491Z,1022.23
2017-02-14T05:55:59.099Z,1022.28
2017-02-14T05:56:39.742Z,1022.28
2017-02-14T05:57:20.308Z,1022.32
2017-02-14T05:58:00.903Z,1022.35
2017-02-14T05:58:41.505Z,1022.33
2017-02-14T05:59:22.061Z,1022.32
2017-02-14T06:00:02.706Z,1022.39
2017-02-14T06:00:43.258Z,1022.42
2017-02-14T06:01:23.816Z,1022.37
2017-02-14T06:02:04.412Z,1022.41
2017-02-14T06:02:45.013Z,1022.35
2017-02-14T06:03:25.572Z,1022.37
2017-02-14T06:04:06.208Z,1022.44
2017-02-14T06:04:46.868Z,1022.38
2017-02-14T06:05:27.446Z,1022.39
2017-02-14T06:06:09.044Z,1022.4
2017-02-14T06:06:49.647Z,1022.37
2017-02-14T06:07:30.298Z,1022.4
2017-02-14T06:08:10.850Z,1022.37
2017-02-14T06:08:52.472Z,1022.35
2017-02-14T06:09:33.077Z,1022.43
2017-02-14T06:10:13.633Z,1022.39
2017-02-14T06:10:54.276Z,1022.37
2017-02-14T06:11:34.933Z,1022.37
2017-02-14T06:12:15.587Z,1022.35
2017-02-14T06:12:56.135Z,1022.34
2017-02-14T06:13:36.788Z,1022.41
2017-02-14T06:14:17.453Z,1022.37
2017-02-14T06:14:58.093Z,1022.38
2017-02-14T06:15:38.741Z,1022.36
2017-02-14T06:16:19.404Z,1022.42
2017-02-14T06:17:00.052Z,1022.42
2017-02-14T06:17:40.705Z,1022.41
2017-02-14T06:18:21.456Z,1022.41
2017-02-14T06:19:02.217Z,1022.44
2017-02-14T06:19:42.973Z,1022.43
2017-02-14T06:20:23.726Z,1022.44
2017-02-14T06:21:04.376Z,1022.45
2017-02-14T06:21:45.136Z,1022.43
2017-02-14T06:22:25.889Z,1022.47
2017-02-14T06:23:06.644Z,1022.47
2017-02-14T06:23:47.199Z,1022.49
2017-02-14T06:24:27.917Z,1022.48
2017-02-14T06:25:08.611Z,1022.47
2017-02-14T06:25:49.361Z,1022.51
2017-02-14T06:26:29.913Z,1022.51
2017-02-14T06:27:10.613Z,1022.53
2017-02-14T06:27:52.343Z,1022.51
2017-02-14T06:28:33.117Z,1022.53
2017-02-14T06:29:13.682Z,1022.49
2017-02-14T06:29:54.305Z,1022.48
2017-02-14T06:30:35.057Z,1022.47
2017-02-14T06:31:15.630Z,1022.53
2017-02-14T06:31:56.261Z,1022.48
2017-02-14T06:32:36.912Z,1022.5
2017-02-14T06:33:17.481Z,1022.52
2017-02-14T06:33:58.220Z,1022.54
2017-02-14T06:34:38.975Z,1022.53
2017-02-14T06:35:19.649Z,1022.56
2017-02-14T06:36:00.384Z,1022.54
2017-02-14T06:36:41.144Z,1022.51
2017-02-14T06:37:21.789Z,1022.54
2017-02-14T06:38:02.374Z,1022.52
2017-02-14T06:38:43.154Z,1022.5
2017-02-14T06:39:23.806Z,1022.55
2017-02-14T06:40:04.468Z,1022.56
2017-02-14T06:40:45.226Z,1022.56
2017-02-14T06:41:25.989Z,1022.57
2017-02-14T06:42:06.620Z,1022.55
2017-02-14T06:42:48.398Z,1022.53
2017-02-14T06:43:29.153Z,1022.56
2017-02-14T06:44:09.752Z,1022.52
2017-02-14T06:44:50.318Z,1022.52
2017-02-14T06:45:31.058Z,1022.56
2017-02-14T06:46:11.620Z,1022.55
2017-02-14T06:46:52.191Z,1022.53
2017-02-14T06:47:33.905Z,1022.54
2017-02-14T06:48:14.589Z,1022.56
2017-02-14T06:48:55.162Z,1022.57
2017-02-14T06:49:35.848Z,1022.56
2017-02-14T06:50:16.554Z,1022.56
2017-02-14T06:50:57.315Z,1022.55
2017-02-14T06:51:37.892Z,1022.57
2017-02-14T06:52:18.692Z,1022.61
2017-02-14T06:52:59.457Z,1022.61
2017-02-14T06:53:40.230Z,1022.59
2017-02-14T06:54:20.807Z,1022.67
2017-02-14T06:55:01.421Z,1022.63
2017-02-14T06:55:42.188Z,1022.65
2017-02-14T06:56:22.757Z,1022.62
2017-02-14T06:57:03.485Z,1022.67
2017-02-14T06:57:45.165Z,1022.73
2017-02-14T06:58:25.754Z,1022.68
2017-02-14T06:59:06.355Z,1022.71
2017-02-14T06:59:47.027Z,1022.7
2017-02-14T07:00:27.607Z,1022.66
2017-02-14T07:01:08.604Z,1022.68
2017-02-14T07:01:49.074Z,1022.66
2017-02-14T07:02:29.732Z,1022.73
2017-02-14T07:03:10.395Z,1022.75
2017-02-14T07:03:51.037Z,1022.78
2017-02-14T07:04:31.701Z,1022.76
2017-02-14T07:05:12.350Z,1022.79
2017-02-14T07:05:53.010Z,1022.79
2017-02-14T07:06:33.755Z,1022.8
2017-02-14T07:07:14.411Z,1022.81
2017-02-14T07:07:56.195Z,1022.8
2017-02-14T07:08:36.768Z,1022.87
2017-02-14T07:09:17.360Z,1022.85
2017-02-14T07:09:58.039Z,1022.84
2017-02-14T07:10:38.705Z,1022.84
2017-02-14T07:11:19.277Z,1022.84
2017-02-14T07:11:59.947Z,1022.85
2017-02-14T07:12:40.547Z,1022.86
2017-02-14T07:13:22.234Z,1022.84
2017-02-14T07:14:02.811Z,1022.86
2017-02-14T07:14:43.440Z,1022.91
2017-02-14T07:15:24.103Z,1022.87
2017-02-14T07:16:04.655Z,1022.86
2017-02-14T07:16:46.304Z,1022.86
2017-02-14T07:17:26.982Z,1022.92
2017-02-14T07:18:07.567Z,1022.91
2017-02-14T07:18:48.177Z,1022.94
2017-02-14T07:19:28.831Z,1022.92
2017-02-14T07:20:09.477Z,1022.89
2017-02-14T07:20:50.149Z,1022.93
2017-02-14T07:21:30.781Z,1022.94
2017-02-14T07:22:13.405Z,1022.9
2017-02-14T07:22:54.041Z,1022.89
2017-02-14T07:23:34.605Z,1022.89
2017-02-14T07:24:15.188Z,1022.9
2017-02-14T07:24:55.794Z,1022.94
2017-02-14T07:25:36.442Z,1022.94
2017-02-14T07:26:17.018Z,1022.98
2017-02-14T07:26:57.634Z,1022.9
2017-02-14T07:27:38.291Z,1022.93
2017-02-14T07:28:18.957Z,1022.91
2017-02-14T07:28:59.527Z,1022.93
2017-02-14T07:29:40.155Z,1022.89
2017-02-14T07:30:20.807Z,1022.85
2017-02-14T07:31:01.378Z,1022.91
2017-02-14T07:31:41.999Z,1022.88
2017-02-14T07:32:22.666Z,1022.92
2017-02-14T07:33:03.243Z,1022.89
2017-02-14T07:33:43.868Z,1022.95
2017-02-14T07:34:24.521Z,1022.88
2017-02-14T07:35:05.182Z,1022.95
2017-02-14T07:35:45.822Z,1022.91
2017-02-14T07:36:26.489Z,1022.95
2017-02-14T07:37:07.134Z,1022.89
2017-02-14T07:37:47.788Z,1022.92
2017-02-14T07:38:28.438Z,1022.97
2017-02-14T07:39:09.005Z,1022.95
2017-02-14T07:39:49.652Z,1022.95
2017-02-14T07:40:30.296Z,1023
2017-02-14T07:41:10.878Z,1022.98
2017-02-14T07:41:51.482Z,1023.02
2017-02-14T07:42:32.152Z,1023.02
2017-02-14T07:43:12.707Z,1023.02
2017-02-14T07:43:53.356Z,1023.06
2017-02-14T07:44:34.010Z,1023.07
2017-02-14T07:45:14.624Z,1023.06
2017-02-14T07:45:55.264Z,1023.05
2017-02-14T07:46:35.892Z,1023
2017-02-14T07:47:16.487Z,1023.07
2017-02-14T07:47:57.173Z,1023.06
2017-02-14T07:48:37.742Z,1023.06
2017-02-14T07:49:18.322Z,1023.05
2017-02-14T07:49:58.925Z,1023.1
2017-02-14T07:50:39.581Z,1023.11
2017-02-14T07:51:20.166Z,1023.13
2017-02-14T07:52:00.833Z,1023.12
2017-02-14T07:52:41.455Z,1023.19
2017-02-14T07:53:22.087Z,1023.13
2017-02-14T07:54:02.740Z,1023.2
2017-02-14T07:54:43.393Z,1023.19
2017-02-14T07:55:25.074Z,1023.21
2017-02-14T07:56:05.727Z,1023.24
2017-02-14T07:56:46.307Z,1023.28
2017-02-14T07:57:26.925Z,1023.27
2017-02-14T07:58:07.584Z,1023.23
2017-02-14T07:58:48.238Z,1023.23
2017-02-14T07:59:28.884Z,1023.25
2017-02-14T08:00:09.536Z,1023.27
2017-02-14T08:00:50.186Z,1023.21
2017-02-14T08:01:30.844Z,1023.24
2017-02-14T08:02:12.530Z,1023.3
2017-02-14T08:02:53.176Z,1023.26
2017-02-14T08:03:33.827Z,1023.24
2017-02-14T08:04:14.479Z,1023.23
2017-02-14T08:04:55.048Z,1023.26
2017-02-14T08:05:35.737Z,1023.29
2017-02-14T08:06:16.392Z,1023.26
2017-02-14T08:06:57.052Z,1023.28
2017-02-14T08:07:37.782Z,1023.27
2017-02-14T08:08:18.457Z,1023.27
2017-02-14T08:08:59.152Z,1023.23
2017-02-14T08:09:39.808Z,1023.31
2017-02-14T08:10:20.465Z,1023.29
2017-02-14T08:11:02.136Z,1023.27
2017-02-14T08:11:42.788Z,1023.28
2017-02-14T08:12:23.443Z,1023.24
2017-02-14T08:13:04.090Z,1023.31
2017-02-14T08:13:44.662Z,1023.24